sensor_id;sensor_type;location;lat;lon;timestamp;P1;durP1;ratioP1;P2;durP2;ratioP2
58874;SDS011;44652;49.040;12.126;2023-06-26T05:09:37;3.10;;;2.03;;
58874;SDS011;44652;49.040;12.126;2023-06-26T05:12:04;3.67;;;1.70;;
58874;SDS011;44652;49.040;12.126;2023-06-26T05:14:31;3.25;;;1.85;;
58874;SDS011;44652;49.040;12.126;2023-06-26T05:16:58;3.72;;;2.20;;
58874;SDS011;44652;49.040;12.126;2023-06-26T05:19:24;2.95;;;1.95;;
58874;SDS011;44652;49.040;12.126;2023-06-26T05:21:51;5.03;;;1.95;;
58874;SDS011;44652;49.040;12.126;2023-06-26T05:24:18;3.38;;;2.15;;
58874;SDS011;44652;49.040;12.126;2023-06-26T05:26:48;3.30;;;1.92;;
58874;SDS011;44652;49.040;12.126;2023-06-26T05:29:15;3.25;;;1.77;;
58874;SDS011;44652;49.040;12.126;2023-06-26T05:31:42;3.30;;;2.17;;
58874;SDS011;44652;49.040;12.126;2023-06-26T05:34:14;3.47;;;2.30;;
58874;SDS011;44652;49.040;12.126;2023-06-26T05:36:43;3.28;;;1.95;;
58874;SDS011;44652;49.040;12.126;2023-06-26T05:39:11;4.38;;;2.53;;
58874;SDS011;44652;49.040;12.126;2023-06-26T05:41:38;3.15;;;1.95;;
58874;SDS011;44652;49.040;12.126;2023-06-26T05:44:05;4.82;;;2.35;;
58874;SDS011;44652;49.040;12.126;2023-06-26T05:50:51;3.28;;;1.60;;
58874;SDS011;44652;49.040;12.126;2023-06-26T05:53:18;3.55;;;2.38;;
58874;SDS011;44652;49.040;12.126;2023-06-26T06:00:03;3.78;;;1.95;;
58874;SDS011;44652;49.040;12.126;2023-06-26T06:02:39;2.65;;;1.48;;
58874;SDS011;44652;49.040;12.126;2023-06-26T06:09:19;4.35;;;2.42;;
58874;SDS011;44652;49.040;12.126;2023-06-26T06:11:46;3.85;;;2.58;;
58874;SDS011;44652;49.040;12.126;2023-06-26T06:14:13;3.22;;;2.42;;
58874;SDS011;44652;49.040;12.126;2023-06-26T06:16:39;4.13;;;2.63;;
58874;SDS011;44652;49.040;12.126;2023-06-26T06:23:26;4.50;;;2.50;;
58874;SDS011;44652;49.040;12.126;2023-06-26T06:25:53;3.10;;;1.85;;
58874;SDS011;44652;49.040;12.126;2023-06-26T06:28:20;3.28;;;2.17;;
58874;SDS011;44652;49.040;12.126;2023-06-26T06:30:47;3.72;;;2.17;;
58874;SDS011;44652;49.040;12.126;2023-06-26T06:39:58;4.72;;;2.55;;
58874;SDS011;44652;49.040;12.126;2023-06-26T06:46:12;5.20;;;2.80;;
58874;SDS011;44652;49.040;12.126;2023-06-26T06:57:27;4.40;;;2.95;;
58874;SDS011;44652;49.040;12.126;2023-06-26T07:08:27;4.22;;;2.30;;
58874;SDS011;44652;49.040;12.126;2023-06-26T07:10:54;3.38;;;2.22;;
58874;SDS011;44652;49.040;12.126;2023-06-26T07:13:23;4.63;;;2.60;;
58874;SDS011;44652;49.040;12.126;2023-06-26T07:15:50;4.63;;;2.78;;
58874;SDS011;44652;49.040;12.126;2023-06-26T07:18:17;4.45;;;2.67;;
58874;SDS011;44652;49.040;12.126;2023-06-26T07:20:44;3.70;;;2.47;;
58874;SDS011;44652;49.040;12.126;2023-06-26T07:27:29;3.38;;;2.10;;
58874;SDS011;44652;49.040;12.126;2023-06-26T07:29:57;4.87;;;2.60;;
58874;SDS011;44652;49.040;12.126;2023-06-26T07:32:23;3.80;;;2.28;;
58874;SDS011;44652;49.040;12.126;2023-06-26T07:47:10;5.60;;;2.65;;
58874;SDS011;44652;49.040;12.126;2023-06-26T07:49:37;2.63;;;1.98;;
58874;SDS011;44652;49.040;12.126;2023-06-26T07:52:05;5.30;;;1.90;;
58874;SDS011;44652;49.040;12.126;2023-06-26T07:54:33;4.05;;;2.03;;
58874;SDS011;44652;49.040;12.126;2023-06-26T07:57:00;3.33;;;1.75;;
58874;SDS011;44652;49.040;12.126;2023-06-26T08:06:49;3.88;;;2.03;;
58874;SDS011;44652;49.040;12.126;2023-06-26T08:09:17;3.75;;;2.20;;
58874;SDS011;44652;49.040;12.126;2023-06-26T08:16:03;5.15;;;2.20;;
58874;SDS011;44652;49.040;12.126;2023-06-26T08:18:30;4.00;;;2.10;;
58874;SDS011;44652;49.040;12.126;2023-06-26T08:25:15;3.25;;;1.92;;
58874;SDS011;44652;49.040;12.126;2023-06-26T08:27:41;5.75;;;2.40;;
58874;SDS011;44652;49.040;12.126;2023-06-26T08:30:08;2.88;;;1.63;;
58874;SDS011;44652;49.040;12.126;2023-06-26T08:32:36;4.22;;;2.40;;
58874;SDS011;44652;49.040;12.126;2023-06-26T08:35:04;4.05;;;2.17;;
58874;SDS011;44652;49.040;12.126;2023-06-26T08:41:49;5.05;;;2.80;;
58874;SDS011;44652;49.040;12.126;2023-06-26T08:55:55;3.97;;;2.03;;
58874;SDS011;44652;49.040;12.126;2023-06-26T08:58:24;3.20;;;1.80;;
58874;SDS011;44652;49.040;12.126;2023-06-26T09:25:38;3.40;;;2.00;;
58874;SDS011;44652;49.040;12.126;2023-06-26T09:41:11;2.75;;;1.67;;
58874;SDS011;44652;49.040;12.126;2023-06-26T09:43:48;4.50;;;2.40;;
58874;SDS011;44652;49.040;12.126;2023-06-26T09:46:25;2.95;;;1.90;;
58874;SDS011;44652;49.040;12.126;2023-06-26T10:00:16;3.55;;;2.28;;
58874;SDS011;44652;49.040;12.126;2023-06-26T10:10:19;4.03;;;2.03;;
58874;SDS011;44652;49.040;12.126;2023-06-26T10:12:48;4.30;;;2.42;;
58874;SDS011;44652;49.040;12.126;2023-06-26T10:19:37;3.55;;;1.90;;
58874;SDS011;44652;49.040;12.126;2023-06-26T10:22:05;4.18;;;2.13;;
58874;SDS011;44652;49.040;12.126;2023-06-26T10:24:33;4.27;;;2.67;;
58874;SDS011;44652;49.040;12.126;2023-06-26T10:27:14;10.30;;;1.95;;
58874;SDS011;44652;49.040;12.126;2023-06-26T10:29:46;5.40;;;1.90;;
58874;SDS011;44652;49.040;12.126;2023-06-26T10:32:17;3.28;;;2.00;;
58874;SDS011;44652;49.040;12.126;2023-06-26T10:39:04;3.15;;;1.85;;
58874;SDS011;44652;49.040;12.126;2023-06-26T10:45:31;3.15;;;1.80;;
58874;SDS011;44652;49.040;12.126;2023-06-26T10:48:00;3.33;;;1.90;;
58874;SDS011;44652;49.040;12.126;2023-06-26T10:54:54;3.47;;;2.13;;
58874;SDS011;44652;49.040;12.126;2023-06-26T10:57:25;3.70;;;1.98;;
58874;SDS011;44652;49.040;12.126;2023-06-26T11:00:10;3.38;;;1.92;;
58874;SDS011;44652;49.040;12.126;2023-06-26T11:14:31;3.08;;;1.90;;
58874;SDS011;44652;49.040;12.126;2023-06-26T11:16:58;3.28;;;1.83;;
58874;SDS011;44652;49.040;12.126;2023-06-26T11:19:27;3.28;;;1.90;;
58874;SDS011;44652;49.040;12.126;2023-06-26T11:21:58;4.78;;;1.63;;
58874;SDS011;44652;49.040;12.126;2023-06-26T11:24:26;3.55;;;2.13;;
58874;SDS011;44652;49.040;12.126;2023-06-26T11:26:52;3.60;;;1.80;;
58874;SDS011;44652;49.040;12.126;2023-06-26T11:29:19;2.97;;;1.58;;
58874;SDS011;44652;49.040;12.126;2023-06-26T11:31:46;3.15;;;2.00;;
58874;SDS011;44652;49.040;12.126;2023-06-26T11:34:13;2.65;;;1.67;;
58874;SDS011;44652;49.040;12.126;2023-06-26T11:36:41;3.25;;;1.83;;
58874;SDS011;44652;49.040;12.126;2023-06-26T11:39:09;3.45;;;1.48;;
58874;SDS011;44652;49.040;12.126;2023-06-26T11:41:37;3.83;;;2.00;;
58874;SDS011;44652;49.040;12.126;2023-06-26T11:44:07;2.80;;;1.50;;
58874;SDS011;44652;49.040;12.126;2023-06-26T11:46:36;2.92;;;1.40;;
58874;SDS011;44652;49.040;12.126;2023-06-26T11:49:04;3.75;;;1.70;;
58874;SDS011;44652;49.040;12.126;2023-06-26T11:51:34;3.28;;;1.73;;
58874;SDS011;44652;49.040;12.126;2023-06-26T11:54:03;1.98;;;1.33;;
58874;SDS011;44652;49.040;12.126;2023-06-26T13:17:18;3.08;;;1.70;;
58874;SDS011;44652;49.040;12.126;2023-06-26T13:19:44;2.45;;;1.45;;
58874;SDS011;44652;49.040;12.126;2023-06-26T13:22:11;3.90;;;1.67;;
58874;SDS011;44652;49.040;12.126;2023-06-26T13:24:38;2.60;;;1.50;;
58874;SDS011;44652;49.040;12.126;2023-06-26T13:41:50;3.53;;;1.83;;
58874;SDS011;44652;49.040;12.126;2023-06-26T13:44:21;3.45;;;1.58;;
58874;SDS011;44652;49.040;12.126;2023-06-26T13:47:01;2.30;;;1.38;;
58874;SDS011;44652;49.040;12.126;2023-06-26T13:49:28;2.80;;;1.58;;
58874;SDS011;44652;49.040;12.126;2023-06-26T13:51:55;2.90;;;1.60;;
58874;SDS011;44652;49.040;12.126;2023-06-26T13:54:21;2.90;;;1.58;;
58874;SDS011;44652;49.040;12.126;2023-06-26T13:56:48;3.20;;;1.65;;
58874;SDS011;44652;49.040;12.126;2023-06-26T13:59:15;2.17;;;1.48;;
58874;SDS011;44652;49.040;12.126;2023-06-26T14:01:42;2.47;;;1.40;;
58874;SDS011;44652;49.040;12.126;2023-06-26T14:04:10;2.22;;;1.33;;
58874;SDS011;44652;49.040;12.126;2023-06-26T14:06:37;2.45;;;1.45;;
58874;SDS011;44652;49.040;12.126;2023-06-26T14:09:03;2.65;;;1.45;;
58874;SDS011;44652;49.040;12.126;2023-06-26T14:11:30;4.55;;;1.60;;
58874;SDS011;44652;49.040;12.126;2023-06-26T14:13:59;2.58;;;1.70;;
58874;SDS011;44652;49.040;12.126;2023-06-26T14:16:26;3.15;;;1.60;;
58874;SDS011;44652;49.040;12.126;2023-06-26T14:18:55;3.15;;;1.65;;
58874;SDS011;44652;49.040;12.126;2023-06-26T14:26:16;2.20;;;1.48;;
58874;SDS011;44652;49.040;12.126;2023-06-26T14:28:43;2.45;;;1.40;;
58874;SDS011;44652;49.040;12.126;2023-06-26T14:31:10;1.92;;;1.30;;
58874;SDS011;44652;49.040;12.126;2023-06-26T14:33:36;2.97;;;1.63;;
58874;SDS011;44652;49.040;12.126;2023-06-26T14:36:04;3.05;;;1.63;;
58874;SDS011;44652;49.040;12.126;2023-06-26T14:38:30;3.92;;;1.58;;
58874;SDS011;44652;49.040;12.126;2023-06-26T14:40:57;2.28;;;1.42;;
58874;SDS011;44652;49.040;12.126;2023-06-26T14:43:24;3.97;;;1.90;;
58874;SDS011;44652;49.040;12.126;2023-06-26T14:45:51;1.88;;;1.27;;
58874;SDS011;44652;49.040;12.126;2023-06-26T14:48:18;2.85;;;1.63;;
58874;SDS011;44652;49.040;12.126;2023-06-26T14:50:45;2.03;;;1.30;;
58874;SDS011;44652;49.040;12.126;2023-06-26T14:53:15;2.20;;;1.52;;
58874;SDS011;44652;49.040;12.126;2023-06-26T14:55:41;3.60;;;1.65;;
58874;SDS011;44652;49.040;12.126;2023-06-26T14:58:08;4.15;;;1.38;;
58874;SDS011;44652;49.040;12.126;2023-06-26T15:00:35;3.33;;;1.50;;
58874;SDS011;44652;49.040;12.126;2023-06-26T15:05:29;2.00;;;1.30;;
58874;SDS011;44652;49.040;12.126;2023-06-26T15:07:56;2.70;;;1.58;;
58874;SDS011;44652;49.040;12.126;2023-06-26T15:10:23;2.10;;;1.38;;
58874;SDS011;44652;49.040;12.126;2023-06-26T15:12:53;3.10;;;1.60;;
58874;SDS011;44652;49.040;12.126;2023-06-26T15:15:20;2.13;;;1.30;;
58874;SDS011;44652;49.040;12.126;2023-06-26T15:17:47;3.33;;;1.30;;
58874;SDS011;44652;49.040;12.126;2023-06-26T15:20:14;3.08;;;1.50;;
58874;SDS011;44652;49.040;12.126;2023-06-26T15:22:41;2.50;;;1.63;;
58874;SDS011;44652;49.040;12.126;2023-06-26T15:25:07;2.13;;;1.30;;
58874;SDS011;44652;49.040;12.126;2023-06-26T15:27:34;1.70;;;1.10;;
58874;SDS011;44652;49.040;12.126;2023-06-26T15:30:01;3.75;;;1.77;;
58874;SDS011;44652;49.040;12.126;2023-06-26T15:32:28;2.33;;;1.55;;
58874;SDS011;44652;49.040;12.126;2023-06-26T15:34:54;2.47;;;1.40;;
58874;SDS011;44652;49.040;12.126;2023-06-26T15:37:21;3.13;;;1.27;;
58874;SDS011;44652;49.040;12.126;2023-06-26T15:39:48;3.05;;;1.55;;
58874;SDS011;44652;49.040;12.126;2023-06-26T15:42:15;3.15;;;1.58;;
58874;SDS011;44652;49.040;12.126;2023-06-26T15:44:41;2.70;;;1.90;;
58874;SDS011;44652;49.040;12.126;2023-06-26T15:47:08;3.28;;;1.85;;
58874;SDS011;44652;49.040;12.126;2023-06-26T15:49:35;3.50;;;1.87;;
58874;SDS011;44652;49.040;12.126;2023-06-26T15:52:01;2.67;;;1.60;;
58874;SDS011;44652;49.040;12.126;2023-06-26T15:54:28;3.80;;;1.80;;
58874;SDS011;44652;49.040;12.126;2023-06-26T15:56:55;2.50;;;1.43;;
58874;SDS011;44652;49.040;12.126;2023-06-26T15:59:21;3.47;;;1.83;;
58874;SDS011;44652;49.040;12.126;2023-06-26T16:01:48;2.83;;;1.60;;
58874;SDS011;44652;49.040;12.126;2023-06-26T16:04:17;2.95;;;1.50;;
58874;SDS011;44652;49.040;12.126;2023-06-26T16:06:44;2.10;;;1.52;;
58874;SDS011;44652;49.040;12.126;2023-06-26T16:09:11;3.08;;;1.67;;
58874;SDS011;44652;49.040;12.126;2023-06-26T16:11:37;3.33;;;1.87;;
58874;SDS011;44652;49.040;12.126;2023-06-26T16:14:04;2.25;;;1.45;;
58874;SDS011;44652;49.040;12.126;2023-06-26T16:16:31;3.03;;;2.10;;
58874;SDS011;44652;49.040;12.126;2023-06-26T16:18:57;2.55;;;1.63;;
58874;SDS011;44652;49.040;12.126;2023-06-26T16:21:25;3.13;;;2.05;;
58874;SDS011;44652;49.040;12.126;2023-06-26T16:23:51;2.33;;;1.50;;
58874;SDS011;44652;49.040;12.126;2023-06-26T16:26:18;3.23;;;2.00;;
58874;SDS011;44652;49.040;12.126;2023-06-26T16:28:45;3.10;;;1.90;;
58874;SDS011;44652;49.040;12.126;2023-06-26T16:31:14;3.13;;;2.03;;
58874;SDS011;44652;49.040;12.126;2023-06-26T16:33:41;3.58;;;1.83;;
58874;SDS011;44652;49.040;12.126;2023-06-26T16:36:08;3.43;;;1.97;;
58874;SDS011;44652;49.040;12.126;2023-06-26T16:38:34;4.20;;;2.20;;
58874;SDS011;44652;49.040;12.126;2023-06-26T16:41:01;2.80;;;1.90;;
58874;SDS011;44652;49.040;12.126;2023-06-26T16:43:28;3.43;;;2.20;;
58874;SDS011;44652;49.040;12.126;2023-06-26T16:45:55;2.80;;;1.67;;
58874;SDS011;44652;49.040;12.126;2023-06-26T16:48:21;3.13;;;2.00;;
58874;SDS011;44652;49.040;12.126;2023-06-26T16:50:48;2.47;;;1.43;;
58874;SDS011;44652;49.040;12.126;2023-06-26T16:53:15;3.10;;;1.93;;
58874;SDS011;44652;49.040;12.126;2023-06-26T16:55:41;4.07;;;1.97;;
58874;SDS011;44652;49.040;12.126;2023-06-26T16:58:08;2.83;;;1.80;;
58874;SDS011;44652;49.040;12.126;2023-06-26T17:00:35;2.17;;;1.53;;
58874;SDS011;44652;49.040;12.126;2023-06-26T17:03:05;4.18;;;2.03;;
58874;SDS011;44652;49.040;12.126;2023-06-26T17:05:32;2.75;;;1.88;;
58874;SDS011;44652;49.040;12.126;2023-06-26T17:08:00;4.07;;;2.22;;
58874;SDS011;44652;49.040;12.126;2023-06-26T17:10:27;3.43;;;1.93;;
58874;SDS011;44652;49.040;12.126;2023-06-26T17:12:54;5.30;;;2.38;;
58874;SDS011;44652;49.040;12.126;2023-06-26T17:15:20;4.27;;;1.90;;
58874;SDS011;44652;49.040;12.126;2023-06-26T17:17:49;3.00;;;1.75;;
58874;SDS011;44652;49.040;12.126;2023-06-26T17:20:16;3.85;;;2.10;;
58874;SDS011;44652;49.040;12.126;2023-06-26T17:22:45;3.58;;;2.08;;
58874;SDS011;44652;49.040;12.126;2023-06-26T17:25:13;4.13;;;2.30;;
58874;SDS011;44652;49.040;12.126;2023-06-26T17:27:40;3.55;;;1.85;;
58874;SDS011;44652;49.040;12.126;2023-06-26T17:30:07;3.53;;;2.00;;
58874;SDS011;44652;49.040;12.126;2023-06-26T17:32:35;3.90;;;2.10;;
58874;SDS011;44652;49.040;12.126;2023-06-26T17:35:01;3.83;;;2.67;;
58874;SDS011;44652;49.040;12.126;2023-06-26T17:37:28;2.43;;;1.70;;
58874;SDS011;44652;49.040;12.126;2023-06-26T17:39:55;3.05;;;1.77;;
58874;SDS011;44652;49.040;12.126;2023-06-26T17:42:22;2.33;;;1.65;;
58874;SDS011;44652;49.040;12.126;2023-06-26T17:44:51;4.30;;;2.50;;
58874;SDS011;44652;49.040;12.126;2023-06-26T17:47:18;4.10;;;2.40;;
58874;SDS011;44652;49.040;12.126;2023-06-26T17:49:45;3.50;;;2.10;;
58874;SDS011;44652;49.040;12.126;2023-06-26T17:52:12;3.30;;;1.97;;
58874;SDS011;44652;49.040;12.126;2023-06-26T17:54:39;3.00;;;2.10;;
58874;SDS011;44652;49.040;12.126;2023-06-26T17:57:08;3.42;;;2.00;;
58874;SDS011;44652;49.040;12.126;2023-06-26T17:59:34;4.38;;;2.50;;
58874;SDS011;44652;49.040;12.126;2023-06-26T18:02:02;3.58;;;2.38;;
58874;SDS011;44652;49.040;12.126;2023-06-26T18:06:56;4.55;;;2.40;;
58874;SDS011;44652;49.040;12.126;2023-06-26T18:09:23;3.60;;;1.73;;
58874;SDS011;44652;49.040;12.126;2023-06-26T18:12:10;3.40;;;1.90;;
58874;SDS011;44652;49.040;12.126;2023-06-26T18:14:39;2.22;;;1.75;;
58874;SDS011;44652;49.040;12.126;2023-06-26T18:17:06;3.72;;;1.90;;
58874;SDS011;44652;49.040;12.126;2023-06-26T18:22:01;2.57;;;1.47;;
58874;SDS011;44652;49.040;12.126;2023-06-26T18:24:27;3.85;;;2.45;;
58874;SDS011;44652;49.040;12.126;2023-06-26T18:26:57;3.58;;;2.35;;
58874;SDS011;44652;49.040;12.126;2023-06-26T18:29:27;3.70;;;2.10;;
58874;SDS011;44652;49.040;12.126;2023-06-26T18:36:07;5.57;;;2.10;;
58874;SDS011;44652;49.040;12.126;2023-06-26T18:43:12;3.10;;;1.73;;
58874;SDS011;44652;49.040;12.126;2023-06-26T18:56:43;2.83;;;1.60;;
58874;SDS011;44652;49.040;12.126;2023-06-26T18:59:10;3.33;;;2.00;;
58874;SDS011;44652;49.040;12.126;2023-06-26T19:13:00;1.33;;;0.88;;
58874;SDS011;44652;49.040;12.126;2023-06-26T19:15:38;2.22;;;1.48;;
58874;SDS011;44652;49.040;12.126;2023-06-26T19:25:59;2.35;;;1.33;;
58874;SDS011;44652;49.040;12.126;2023-06-26T19:28:26;2.00;;;1.27;;
58874;SDS011;44652;49.040;12.126;2023-06-26T19:30:55;2.55;;;1.35;;
58874;SDS011;44652;49.040;12.126;2023-06-26T19:43:11;2.72;;;1.27;;
58874;SDS011;44652;49.040;12.126;2023-06-26T19:48:30;2.15;;;1.42;;
58874;SDS011;44652;49.040;12.126;2023-06-26T19:50:57;2.38;;;1.55;;
58874;SDS011;44652;49.040;12.126;2023-06-26T19:53:27;2.35;;;1.38;;
58874;SDS011;44652;49.040;12.126;2023-06-26T19:55:54;1.80;;;1.10;;
58874;SDS011;44652;49.040;12.126;2023-06-26T19:58:21;2.78;;;1.83;;
58874;SDS011;44652;49.040;12.126;2023-06-26T20:00:47;1.27;;;1.00;;
58874;SDS011;44652;49.040;12.126;2023-06-26T20:03:14;4.45;;;1.73;;
58874;SDS011;44652;49.040;12.126;2023-06-26T20:05:41;2.72;;;1.30;;
58874;SDS011;44652;49.040;12.126;2023-06-26T20:08:08;7.65;;;1.98;;
58874;SDS011;44652;49.040;12.126;2023-06-26T20:10:35;4.18;;;1.77;;
58874;SDS011;44652;49.040;12.126;2023-06-26T20:13:02;3.15;;;1.83;;
58874;SDS011;44652;49.040;12.126;2023-06-26T20:15:28;1.92;;;1.33;;
58874;SDS011;44652;49.040;12.126;2023-06-26T20:17:55;2.92;;;1.60;;
58874;SDS011;44652;49.040;12.126;2023-06-26T20:20:22;3.22;;;1.98;;
58874;SDS011;44652;49.040;12.126;2023-06-26T20:22:49;3.33;;;1.80;;
58874;SDS011;44652;49.040;12.126;2023-06-26T20:25:15;3.58;;;2.05;;
58874;SDS011;44652;49.040;12.126;2023-06-26T20:27:42;2.65;;;1.65;;
58874;SDS011;44652;49.040;12.126;2023-06-26T20:30:09;3.63;;;2.22;;
58874;SDS011;44652;49.040;12.126;2023-06-26T20:32:36;3.73;;;2.27;;
58874;SDS011;44652;49.040;12.126;2023-06-26T20:35:03;3.58;;;2.08;;
58874;SDS011;44652;49.040;12.126;2023-06-26T20:37:29;3.25;;;1.75;;
58874;SDS011;44652;49.040;12.126;2023-06-26T20:39:56;3.47;;;1.83;;
58874;SDS011;44652;49.040;12.126;2023-06-26T20:42:23;4.05;;;1.80;;
58874;SDS011;44652;49.040;12.126;2023-06-26T20:44:50;3.22;;;1.88;;
58874;SDS011;44652;49.040;12.126;2023-06-26T20:47:17;3.85;;;1.95;;
58874;SDS011;44652;49.040;12.126;2023-06-26T20:49:45;3.78;;;2.05;;
58874;SDS011;44652;49.040;12.126;2023-06-26T20:52:12;3.72;;;1.92;;
58874;SDS011;44652;49.040;12.126;2023-06-26T20:54:44;3.65;;;2.20;;
58874;SDS011;44652;49.040;12.126;2023-06-26T20:57:11;3.05;;;1.80;;
58874;SDS011;44652;49.040;12.126;2023-06-26T20:59:38;4.40;;;2.03;;
58874;SDS011;44652;49.040;12.126;2023-06-26T21:02:05;3.55;;;1.88;;
58874;SDS011;44652;49.040;12.126;2023-06-26T21:04:32;3.92;;;2.22;;
58874;SDS011;44652;49.040;12.126;2023-06-26T21:07:04;3.47;;;1.75;;
58874;SDS011;44652;49.040;12.126;2023-06-26T21:09:32;2.53;;;1.75;;
58874;SDS011;44652;49.040;12.126;2023-06-26T21:11:58;4.70;;;2.20;;
58874;SDS011;44652;49.040;12.126;2023-06-26T21:14:27;4.82;;;1.70;;
58874;SDS011;44652;49.040;12.126;2023-06-26T21:16:54;4.10;;;1.90;;
58874;SDS011;44652;49.040;12.126;2023-06-26T21:19:21;2.33;;;1.50;;
58874;SDS011;44652;49.040;12.126;2023-06-26T21:21:47;3.30;;;1.60;;
58874;SDS011;44652;49.040;12.126;2023-06-26T21:24:14;2.78;;;1.80;;
58874;SDS011;44652;49.040;12.126;2023-06-26T21:26:41;3.22;;;1.75;;
58874;SDS011;44652;49.040;12.126;2023-06-26T21:29:07;3.00;;;1.80;;
58874;SDS011;44652;49.040;12.126;2023-06-26T21:31:34;3.80;;;2.28;;
58874;SDS011;44652;49.040;12.126;2023-06-26T21:34:01;3.58;;;1.95;;
58874;SDS011;44652;49.040;12.126;2023-06-26T21:36:28;9.88;;;2.50;;
58874;SDS011;44652;49.040;12.126;2023-06-26T21:38:54;4.43;;;2.50;;
58874;SDS011;44652;49.040;12.126;2023-06-26T21:41:21;2.72;;;1.75;;
58874;SDS011;44652;49.040;12.126;2023-06-26T21:43:48;5.45;;;2.17;;
58874;SDS011;44652;49.040;12.126;2023-06-26T21:46:14;3.45;;;2.20;;
58874;SDS011;44652;49.040;12.126;2023-06-26T21:48:42;3.33;;;1.38;;
58874;SDS011;44652;49.040;12.126;2023-06-26T21:53:36;2.53;;;1.17;;
58874;SDS011;44652;49.040;12.126;2023-06-26T21:56:02;2.10;;;1.60;;
58874;SDS011;44652;49.040;12.126;2023-06-26T21:58:29;2.75;;;1.48;;
58874;SDS011;44652;49.040;12.126;2023-06-26T22:00:56;3.13;;;1.00;;
58874;SDS011;44652;49.040;12.126;2023-06-26T22:03:23;2.42;;;1.20;;
58874;SDS011;44652;49.040;12.126;2023-06-26T22:05:49;1.80;;;1.15;;
58874;SDS011;44652;49.040;12.126;2023-06-26T22:08:16;2.30;;;1.25;;
58874;SDS011;44652;49.040;12.126;2023-06-26T22:10:43;1.98;;;1.10;;
58874;SDS011;44652;49.040;12.126;2023-06-26T22:13:09;1.52;;;1.08;;
58874;SDS011;44652;49.040;12.126;2023-06-26T22:15:36;3.80;;;1.45;;
58874;SDS011;44652;49.040;12.126;2023-06-26T22:18:03;2.88;;;1.23;;
58874;SDS011;44652;49.040;12.126;2023-06-26T22:20:30;1.73;;;1.20;;
58874;SDS011;44652;49.040;12.126;2023-06-26T22:22:57;2.08;;;1.33;;
58874;SDS011;44652;49.040;12.126;2023-06-26T22:25:24;2.22;;;1.33;;
58874;SDS011;44652;49.040;12.126;2023-06-26T22:27:51;2.40;;;1.42;;
58874;SDS011;44652;49.040;12.126;2023-06-26T22:30:19;1.55;;;1.30;;
58874;SDS011;44652;49.040;12.126;2023-06-26T22:32:47;4.50;;;1.15;;
58874;SDS011;44652;49.040;12.126;2023-06-26T22:35:15;2.97;;;1.15;;
58874;SDS011;44652;49.040;12.126;2023-06-26T22:37:42;1.90;;;1.05;;
58874;SDS011;44652;49.040;12.126;2023-06-26T22:40:10;1.27;;;0.90;;
58874;SDS011;44652;49.040;12.126;2023-06-26T22:42:38;2.15;;;1.30;;
58874;SDS011;44652;49.040;12.126;2023-06-26T22:45:06;1.33;;;0.98;;
58874;SDS011;44652;49.040;12.126;2023-06-26T22:47:36;4.13;;;1.80;;
58874;SDS011;44652;49.040;12.126;2023-06-26T22:50:03;3.40;;;1.50;;
58874;SDS011;44652;49.040;12.126;2023-06-26T22:52:32;1.23;;;0.93;;
58874;SDS011;44652;49.040;12.126;2023-06-26T22:54:59;2.67;;;0.88;;
58874;SDS011;44652;49.040;12.126;2023-06-26T22:57:27;3.10;;;1.10;;
58874;SDS011;44652;49.040;12.126;2023-06-26T22:59:53;1.25;;;0.90;;
58874;SDS011;44652;49.040;12.126;2023-06-26T23:02:20;1.55;;;0.88;;
58874;SDS011;44652;49.040;12.126;2023-06-26T23:04:47;1.98;;;1.10;;
58874;SDS011;44652;49.040;12.126;2023-06-26T23:07:14;1.13;;;0.80;;
58874;SDS011;44652;49.040;12.126;2023-06-26T23:09:41;1.67;;;0.90;;
58874;SDS011;44652;49.040;12.126;2023-06-26T23:12:09;2.25;;;0.98;;
58874;SDS011;44652;49.040;12.126;2023-06-26T23:14:36;3.25;;;1.63;;
58874;SDS011;44652;49.040;12.126;2023-06-26T23:17:03;1.23;;;0.80;;
58874;SDS011;44652;49.040;12.126;2023-06-26T23:19:31;0.95;;;0.70;;
58874;SDS011;44652;49.040;12.126;2023-06-26T23:21:59;1.77;;;1.08;;
58874;SDS011;44652;49.040;12.126;2023-06-26T23:24:27;0.93;;;0.82;;
58874;SDS011;44652;49.040;12.126;2023-06-26T23:26:59;2.17;;;1.00;;
58874;SDS011;44652;49.040;12.126;2023-06-26T23:29:25;1.77;;;0.88;;
58874;SDS011;44652;49.040;12.126;2023-06-26T23:31:52;3.28;;;1.52;;
58874;SDS011;44652;49.040;12.126;2023-06-26T23:34:19;1.92;;;1.33;;
58874;SDS011;44652;49.040;12.126;2023-06-26T23:36:46;1.67;;;1.00;;
58874;SDS011;44652;49.040;12.126;2023-06-26T23:39:19;3.05;;;0.80;;
58874;SDS011;44652;49.040;12.126;2023-06-26T23:41:46;1.65;;;1.00;;
58874;SDS011;44652;49.040;12.126;2023-06-26T23:44:16;1.33;;;0.90;;
58874;SDS011;44652;49.040;12.126;2023-06-26T23:46:45;1.40;;;0.90;;
58874;SDS011;44652;49.040;12.126;2023-06-26T23:49:12;2.30;;;0.60;;
58874;SDS011;44652;49.040;12.126;2023-06-26T23:51:39;1.30;;;0.90;;
58874;SDS011;44652;49.040;12.126;2023-06-26T23:54:05;1.02;;;0.90;;
58874;SDS011;44652;49.040;12.126;2023-06-26T23:56:32;2.35;;;1.05;;
58874;SDS011;44652;49.040;12.126;2023-06-26T23:58:59;1.02;;;0.70;;
